Карточка аэропорта UAKK

Внимание!
Информация на этой странице в стадии наполнения.
Если вы не увидели какой-то информации, или заметили неточность - пожалуйста сообщите нам!
Спасибо!
Команда RU-STAFF
Название аэропортаКараганда
Название аэропорта (англ.)Karaganda
Превышение1768 ft. (538.9 m.)
Координаты49°40.302', 73°20.118'
Высота перехода10000
Эшелон переходаby ATC
Коды ответчика0630-0637, 7220-7227
Зона ОрВДАстана РПИ (UACN)
Данные METARUAKK 140800Z 23010MPS CAVOK 18/M01 Q1009 NOSIG RMK QFE710/0947
Проноз погоды (TAF)UAKK 140500Z 1406/1506 20008MPS 9999 SCT040 BKN100 TX17/1410Z TN03/1423Z TEMPO 1406/1410 23011MPS BKN030 BECMG 1412/1414 -RA BKN020 BKN040 TEMPO 1412/1418 23011G16MPS 3100 -SHRA BKN011 BKN030CB BECMG 1418/1420 23005MPS TEMPO 1418/1501 3100 -SHRA BR BKN007 BKN020CB
NOTAMshow/hide NOTAM
AWOS   TABLE

Информация о ВПП

ВПП Длина ВПП (м.) Покрытие Курс ВПП Частота ILS
233601Железобетон230111.7
053601Железобетон50109.9

Диспетчерские позиции




Спутниковое изображение